EDT,Max TemperatureF,Mean TemperatureF,Min TemperatureF,Max Dew PointF,MeanDew PointF,Min DewpointF,Max Humidity, Mean Humidity, Min Humidity, Max Sea Level PressureIn, Mean Sea Level PressureIn, Min Sea Level PressureIn, Max VisibilityMiles, Mean VisibilityMiles, Min VisibilityMiles, Max Wind SpeedMPH, Mean Wind SpeedMPH, Max Gust SpeedMPH,PrecipitationIn, CloudCover, Events, WindDirDegrees
2013-3-1,39,36,32,32,27,23,96,78,59,29.69,29.61,29.51,10,10,10,20,11,26,0.00,7,,326
2013-3-2,36,33,29,25,23,22,78,69,59,29.68,29.66,29.62,10,10,10,17,10,23,0.00,8,,314
2013-3-3,36,32,27,28,24,19,92,78,64,29.65,29.60,29.55,10,7,2,20,12,26,0.01,8,Snow,303
2013-3-4,35,29,23,21,19,16,81,69,56,29.76,29.66,29.61,10,10,9,30,21,38,T,4,Snow,292
2013-3-5,42,34,25,29,23,19,82,66,50,30.07,29.95,29.76,10,10,10,22,10,28,0.00,6,,345
2013-3-6,35,32,29,32,30,27,100,85,70,30.07,30.02,29.99,10,4,0,25,15,38,0.11,8,Fog-Snow,57
2013-3-7,31,29,27,29,26,24,100,89,78,30.05,30.00,29.96,9,2,0,24,17,37,0.41,8,Fog-Rain-Snow,26
2013-3-8,38,33,27,29,25,16,100,72,44,30.16,29.98,29.90,10,3,0,25,16,43,0.88,6,Fog-Snow,17
2013-3-9,50,40,30,27,17,12,78,51,23,30.34,30.24,30.14,10,10,2,18,9,27,0.00,0,,42
2013-3-10,43,36,29,30,27,26,92,73,53,30.40,30.34,30.27,10,10,10,10,7,14,0.00,1,,99
2013-3-11,47,39,31,40,33,28,100,79,58,30.30,30.21,30.12,10,10,10,16,11,22,0.00,5,,212
2013-3-12,51,46,41,50,44,40,100,93,86,30.14,29.94,29.72,10,4,0,22,12,33,0.59,8,Fog-Rain,192
2013-3-13,46,39,32,37,26,17,92,64,36,29.79,29.77,29.73,10,10,10,21,12,29,0.00,1,,290
2013-3-14,33,26,19,21,11,4,63,53,42,29.84,29.78,29.73,10,10,10,29,17,37,0.00,5,,289
2013-3-15,36,26,16,28,16,2,85,58,31,29.86,29.73,29.62,10,8,1,26,14,38,T,5,Snow,275
2013-3-16,35,29,22,23,13,5,75,52,29,29.88,29.80,29.70,10,10,10,15,7,21,T,5,,295
2013-3-17,33,27,21,14,7,-1,71,48,25,30.30,30.05,29.88,10,10,10,26,11,33,0.00,0,,314
2013-3-18,34,25,16,23,6,-5,84,53,22,30.43,30.32,30.16,10,8,1,17,6,20,0.01,3,Snow,77
2013-3-19,31,28,25,31,28,24,100,96,92,30.14,29.80,29.60,10,2,0,22,13,33,0.92,8,Fog-Rain-Snow,36
2013-3-20,33,27,21,24,17,15,92,71,49,29.81,29.74,29.66,10,10,9,26,14,35,T,3,,274
2013-3-21,34,28,22,25,16,11,85,64,43,29.81,29.68,29.57,10,9,2,17,7,21,T,7,Snow,274
2013-3-22,35,28,20,20,15,12,73,58,43,29.76,29.68,29.62,10,10,9,26,15,32,T,3,Snow,285
2013-3-23,37,31,24,21,17,15,81,63,44,29.81,29.73,29.68,10,10,10,33,15,44,0.00,4,,279
2013-3-24,43,35,27,20,19,16,75,56,36,29.82,29.79,29.74,10,10,10,17,9,25,0.00,2,,331
2013-3-25,38,34,30,28,24,20,75,67,59,29.75,29.61,29.49,10,10,10,21,10,30,T,5,,43
2013-3-26,43,38,32,26,22,16,75,57,39,29.80,29.67,29.54,10,10,9,16,10,22,T,6,Snow,323
2013-3-27,48,39,30,28,21,17,70,52,34,29.88,29.81,29.78,10,10,10,21,13,26,0.00,3,,303
2013-3-28,46,40,33,31,29,24,82,64,45,30.04,29.94,29.85,10,9,2,14,9,19,0.02,8,Snow,338
2013-3-29,52,44,35,30,28,25,82,59,35,30.07,30.04,29.99,10,10,10,18,12,24,0.00,4,,297
2013-3-30,37,36,35,31,29,27,76,73,70,30.07,30.04,30.01,10,10,10,15,9,,0.00,4,,317
2013-3-31,,,,,,,,,,30.06,29.97,29.90,10,10,10,21,15,23,0.00,3,Rain,225